Time;durP1;ratioP1;P1;durP2;ratioP2;P2;SDS_P1;SDS_P2;PMS_P1;PMS_P2;Temp;Humidity;BMP_temperature;BMP_pressure;BME280_temperature;BME280_humidity;BME280_pressure;Samples;Min_cycle;Max_cycle;Signal;HPM_P1;HPM_P2
2023/02/05 00:00:15;;;;;;;28.87;11.23;;;8.40;99.90;;;;;;5034767;28;20116;-82
2023/02/05 00:02:41;;;;;;;32.40;11.10;;;8.40;99.90;;;;;;5025684;28;20041;-82
2023/02/05 00:05:07;;;;;;;33.43;11.70;;;8.40;99.90;;;;;;5060692;28;20112;-84
2023/02/05 00:07:32;;;;;;;24.47;10.30;;;8.40;99.90;;;;;;5053580;28;20036;-83
2023/02/05 00:09:58;;;;;;;28.57;10.13;;;8.40;99.90;;;;;;5054911;28;20032;-84
2023/02/05 00:12:24;;;;;;;29.40;10.43;;;8.40;99.90;;;;;;5045501;28;20056;-83
2023/02/05 00:14:49;;;;;;;27.50;10.53;;;8.40;99.90;;;;;;5016303;28;20047;-83
2023/02/05 00:17:15;;;;;;;31.60;11.47;;;8.30;99.90;;;;;;5033587;28;20037;-84
2023/02/05 00:19:40;;;;;;;27.10;9.73;;;8.40;99.90;;;;;;5034029;28;20060;-84
2023/02/05 00:22:06;;;;;;;26.03;10.73;;;8.40;99.90;;;;;;5039636;28;20354;-84
2023/02/05 00:24:32;;;;;;;28.30;9.80;;;8.40;99.90;;;;;;5069814;28;20037;-84
2023/02/05 00:26:57;;;;;;;31.83;10.90;;;8.40;99.90;;;;;;5069250;28;20029;-84
2023/02/05 00:29:23;;;;;;;33.90;11.50;;;8.40;99.90;;;;;;5052242;28;20120;-84
2023/02/05 00:31:49;;;;;;;30.67;11.13;;;8.40;99.90;;;;;;5069294;28;20033;-84
2023/02/05 00:34:15;;;;;;;27.97;10.93;;;8.40;99.90;;;;;;5069416;28;20091;-84
2023/02/05 00:36:41;;;;;;;30.07;11.97;;;8.40;99.90;;;;;;5052390;28;20025;-83
2023/02/05 00:39:08;;;;;;;33.63;12.63;;;8.40;99.90;;;;;;5052342;28;20025;-84
2023/02/05 00:41:34;;;;;;;27.93;10.90;;;8.40;99.90;;;;;;5067224;28;20029;-84
2023/02/05 00:43:59;;;;;;;26.53;11.47;;;8.40;99.90;;;;;;5016318;28;20087;-84
2023/02/05 00:46:25;;;;;;;29.57;13.77;;;8.40;99.90;;;;;;5032667;28;20029;-83
2023/02/05 00:48:51;;;;;;;31.57;11.87;;;8.40;99.90;;;;;;5032885;28;20021;-83
2023/02/05 00:51:16;;;;;;;31.97;13.33;;;8.40;99.90;;;;;;5033188;28;20025;-84
2023/02/05 00:53:42;;;;;;;33.13;13.80;;;8.40;99.90;;;;;;5015587;28;20034;-84
2023/02/05 00:56:08;;;;;;;38.97;14.50;;;8.40;99.90;;;;;;5032512;28;20022;-84
2023/02/05 00:58:33;;;;;;;42.13;15.90;;;8.40;99.90;;;;;;5032114;28;20033;-83
2023/02/05 01:00:59;;;;;;;40.67;15.40;;;8.40;99.90;;;;;;5034073;28;20048;-84
2023/02/05 01:03:26;;;;;;;41.00;16.60;;;8.40;99.90;;;;;;5051069;28;20029;-84
2023/02/05 01:05:52;;;;;;;41.50;17.10;;;8.50;99.90;;;;;;5051947;28;20083;-84
2023/02/05 01:08:17;;;;;;;47.70;18.13;;;8.40;99.90;;;;;;5053825;28;20056;-83
2023/02/05 01:10:48;;;;;;;48.73;19.23;;;8.40;99.90;;;;;;5052345;28;20080;-83
2023/02/05 01:13:15;;;;;;;40.10;18.27;;;8.40;99.90;;;;;;5052838;28;20067;-83
2023/02/05 01:15:41;;;;;;;48.57;18.50;;;8.40;99.90;;;;;;5053413;28;20037;-83
2023/02/05 01:18:07;;;;;;;41.23;19.03;;;8.50;99.90;;;;;;5069337;28;20051;-83
2023/02/05 01:20:35;;;;;;;34.30;16.23;;;8.40;99.90;;;;;;5053337;28;20029;-84
2023/02/05 01:23:01;;;;;;;45.10;20.20;;;8.40;99.90;;;;;;5035900;28;20385;-84
2023/02/05 01:25:26;;;;;;;49.50;20.20;;;8.50;99.90;;;;;;5015810;28;20124;-84
2023/02/05 01:27:52;;;;;;;54.07;20.03;;;8.40;99.90;;;;;;5016007;28;20083;-85
2023/02/05 01:30:18;;;;;;;45.57;19.50;;;8.40;99.90;;;;;;5032192;28;20033;-85
2023/02/05 01:32:43;;;;;;;42.23;17.83;;;8.40;99.90;;;;;;5046615;28;20076;-85
2023/02/05 01:35:09;;;;;;;41.40;19.87;;;8.40;99.90;;;;;;5034235;28;20080;-85
2023/02/05 01:37:34;;;;;;;52.67;21.23;;;8.50;99.90;;;;;;5032649;28;20094;-85
2023/02/05 01:40:00;;;;;;;52.10;21.10;;;8.40;99.90;;;;;;5033932;28;20135;-84
2023/02/05 01:42:28;;;;;;;47.00;21.87;;;8.40;99.90;;;;;;5031529;28;20106;-84
2023/02/05 01:45:22;;;;;;;48.07;23.37;;;8.40;99.90;;;;;;5070522;28;20028;-84
2023/02/05 01:47:47;;;;;;;61.43;25.50;;;8.40;99.90;;;;;;5071853;28;20031;-84
2023/02/05 01:50:14;;;;;;;57.23;25.87;;;8.40;99.90;;;;;;5054995;28;20104;-85
2023/02/05 01:52:40;;;;;;;56.27;27.17;;;8.40;99.90;;;;;;5054287;28;20024;-82
2023/02/05 01:55:07;;;;;;;49.80;24.53;;;8.40;99.90;;;;;;5056156;28;20098;-84
2023/02/05 01:57:33;;;;;;;62.57;27.37;;;8.40;99.90;;;;;;5055859;28;20025;-84
2023/02/05 01:59:59;;;;;;;59.13;26.67;;;8.40;99.90;;;;;;5072251;28;20025;-84
2023/02/05 02:02:25;;;;;;;58.57;26.20;;;8.40;99.90;;;;;;5044522;28;20041;-85
2023/02/05 02:04:55;;;;;;;54.23;25.37;;;8.40;99.90;;;;;;5036858;28;20029;-85
2023/02/05 02:07:23;;;;;;;57.20;27.73;;;8.40;99.90;;;;;;5035672;28;20082;-84
2023/02/05 02:09:49;;;;;;;52.77;25.83;;;8.40;99.90;;;;;;5036310;28;20093;-84
2023/02/05 02:12:22;;;;;;;51.10;24.87;;;8.40;99.90;;;;;;5053942;28;20044;-84
2023/02/05 02:14:51;;;;;;;52.20;26.30;;;8.40;99.90;;;;;;5056480;28;20393;-84
2023/02/05 02:17:18;;;;;;;53.63;25.50;;;8.40;99.90;;;;;;5055486;28;20377;-84
2023/02/05 02:20:04;;;;;;;50.43;25.20;;;8.40;99.90;;;;;;5054591;28;20033;-84
2023/02/05 02:22:52;;;;;;;51.70;26.47;;;8.30;99.90;;;;;;5056375;28;20508;-84
2023/02/05 02:25:46;;;;;;;50.77;26.33;;;8.30;99.90;;;;;;5055447;28;20025;-86
2023/02/05 02:28:31;;;;;;;51.78;25.98;;;8.40;99.90;;;;;;5056073;28;20104;-85
2023/02/05 02:31:21;;;;;;;49.97;26.10;;;8.40;99.90;;;;;;5055690;28;20063;-85
2023/02/05 02:34:25;;;;;;;58.83;26.87;;;8.30;99.90;;;;;;5054456;28;20021;-84
2023/02/05 02:36:55;;;;;;;52.43;26.47;;;8.40;99.90;;;;;;5013383;28;20598;-83
2023/02/05 02:39:42;;;;;;;50.63;27.40;;;8.40;99.90;;;;;;5032802;28;20041;-84
2023/02/05 02:42:14;;;;;;;49.30;26.53;;;8.30;99.90;;;;;;5035868;28;20022;-84
2023/02/05 02:44:45;;;;;;;52.87;26.43;;;8.40;99.90;;;;;;5035608;28;20044;-83
2023/02/05 02:47:16;;;;;;;46.30;25.07;;;8.40;99.90;;;;;;5035561;28;20030;-83
2023/02/05 02:49:55;;;;;;;52.20;27.90;;;8.30;99.90;;;;;;5034341;28;20025;-81
2023/02/05 02:52:24;;;;;;;55.90;29.33;;;8.30;99.90;;;;;;5035687;28;20477;-82
2023/02/05 02:54:53;;;;;;;57.63;28.33;;;8.30;99.90;;;;;;5034361;28;20034;-82
2023/02/05 02:57:22;;;;;;;49.37;27.37;;;8.30;99.90;;;;;;5033829;28;20482;-82
2023/02/05 02:59:51;;;;;;;52.33;27.13;;;8.40;99.90;;;;;;5035544;28;20104;-83
2023/02/05 03:02:19;;;;;;;51.77;28.20;;;8.30;99.90;;;;;;5032895;28;20033;-83
2023/02/05 03:04:50;;;;;;;57.63;28.60;;;8.30;99.90;;;;;;5035118;28;20025;-83
2023/02/05 03:07:33;;;;;;;54.90;29.77;;;8.20;99.90;;;;;;5033608;28;20492;-83
2023/02/05 03:10:34;;;;;;;48.90;26.70;;;8.20;99.90;;;;;;5038994;28;20048;-83
2023/02/05 03:13:00;;;;;;;54.57;28.80;;;8.30;99.90;;;;;;5054762;28;20051;-83
2023/02/05 03:15:26;;;;;;;51.03;27.33;;;8.20;99.90;;;;;;5053483;28;20045;-83
2023/02/05 03:17:54;;;;;;;50.93;27.60;;;8.20;99.90;;;;;;5053957;28;20059;-85
2023/02/05 03:20:49;;;;;;;49.00;25.93;;;8.20;99.90;;;;;;5054759;28;20486;-83
2023/02/05 03:23:15;;;;;;;52.50;29.40;;;8.20;99.90;;;;;;5054151;28;20439;-83
2023/02/05 03:25:41;;;;;;;50.20;25.97;;;8.20;99.90;;;;;;5054079;28;20021;-83
2023/02/05 03:28:07;;;;;;;50.90;26.23;;;8.20;99.90;;;;;;5054795;28;20116;-84
2023/02/05 03:31:00;;;;;;;48.90;28.23;;;8.10;99.90;;;;;;5055002;28;20678;-83
2023/02/05 03:33:34;;;;;;;52.93;27.77;;;8.10;99.90;;;;;;5048096;28;20033;-84
2023/02/05 03:36:15;;;;;;;48.80;26.40;;;8.10;99.90;;;;;;5055343;28;20063;-84
2023/02/05 03:38:53;;;;;;;52.77;25.17;;;8.10;99.90;;;;;;5039431;28;20025;-84
2023/02/05 03:41:56;;;;;;;45.40;26.30;;;8.10;99.90;;;;;;5034792;28;20481;-83
2023/02/05 03:44:53;;;;;;;43.97;24.60;;;8.10;99.90;;;;;;5049910;28;20032;-84
2023/02/05 03:47:45;;;;;;;48.97;25.80;;;8.10;99.90;;;;;;5044367;28;20111;-86
2023/02/05 03:50:29;;;;;;;42.97;24.37;;;8.10;99.90;;;;;;5063619;28;20029;-85
2023/02/05 03:53:05;;;;;;;45.50;23.90;;;8.10;99.90;;;;;;5043509;28;20473;-84
2023/02/05 03:55:37;;;;;;;40.60;22.60;;;8.10;99.90;;;;;;5033826;28;20033;-85
2023/02/05 03:58:11;;;;;;;39.13;23.00;;;8.00;99.90;;;;;;5035056;28;20029;-85
2023/02/05 04:00:39;;;;;;;38.92;23.00;;;8.10;99.90;;;;;;5033021;28;20064;-83
2023/02/05 04:03:05;;;;;;;38.77;21.77;;;8.00;99.90;;;;;;5032531;28;20024;-84
2023/02/05 04:05:31;;;;;;;37.73;22.00;;;8.10;99.90;;;;;;5032132;28;20025;-84
2023/02/05 04:07:56;;;;;;;33.63;18.90;;;8.10;99.90;;;;;;5036753;28;20096;-84
2023/02/05 04:10:22;;;;;;;36.90;19.73;;;8.00;99.90;;;;;;5052086;28;20091;-82
2023/02/05 04:12:47;;;;;;;36.93;20.70;;;8.00;99.90;;;;;;5052130;28;20033;-84
2023/02/05 04:15:13;;;;;;;34.50;19.90;;;8.10;99.90;;;;;;5051471;28;20049;-83
2023/02/05 04:17:39;;;;;;;38.17;18.83;;;8.10;99.90;;;;;;5045471;28;20040;-84
2023/02/05 04:20:05;;;;;;;32.70;17.97;;;8.00;99.90;;;;;;5032674;28;20109;-83
2023/02/05 04:22:31;;;;;;;34.57;18.30;;;8.00;99.90;;;;;;5032136;28;20048;-85
2023/02/05 04:24:57;;;;;;;39.67;18.73;;;8.00;99.90;;;;;;5032535;28;20032;-84
2023/02/05 04:27:23;;;;;;;33.80;18.93;;;8.00;99.90;;;;;;5036495;28;20033;-84
2023/02/05 04:29:48;;;;;;;35.40;19.57;;;8.00;99.90;;;;;;5015984;28;20033;-84
2023/02/05 04:32:14;;;;;;;36.10;18.57;;;8.10;99.90;;;;;;5032458;28;20029;-84
2023/02/05 04:34:39;;;;;;;35.37;18.57;;;8.00;99.90;;;;;;5015781;28;20037;-84
2023/02/05 04:37:05;;;;;;;35.40;18.70;;;8.00;99.90;;;;;;5026260;28;20144;-84
2023/02/05 04:39:31;;;;;;;35.50;18.07;;;8.00;99.90;;;;;;5052810;28;20027;-86
2023/02/05 04:41:56;;;;;;;33.73;18.30;;;8.00;99.90;;;;;;5052236;28;20399;-84
2023/02/05 04:44:22;;;;;;;33.17;18.13;;;8.10;99.90;;;;;;5068929;28;20499;-83
2023/02/05 04:46:47;;;;;;;33.27;18.30;;;8.00;99.90;;;;;;5051621;28;20040;-83
2023/02/05 04:49:13;;;;;;;29.30;16.97;;;8.00;99.90;;;;;;5069064;28;20036;-84
2023/02/05 04:51:39;;;;;;;31.23;16.77;;;7.90;99.90;;;;;;5052253;28;20029;-84
2023/02/05 04:54:04;;;;;;;35.47;17.33;;;7.90;99.90;;;;;;5052183;28;20025;-84
2023/02/05 04:56:30;;;;;;;29.37;16.53;;;7.90;99.90;;;;;;5046933;28;20366;-83
2023/02/05 04:58:56;;;;;;;31.20;16.17;;;8.00;99.90;;;;;;5035192;28;20525;-83
2023/02/05 05:01:22;;;;;;;29.03;15.97;;;7.90;99.90;;;;;;5051930;28;20055;-83
2023/02/05 05:03:48;;;;;;;32.23;15.43;;;7.90;99.90;;;;;;5051800;28;20048;-83
2023/02/05 05:06:15;;;;;;;32.30;16.20;;;7.90;99.90;;;;;;5051092;28;20500;-84
2023/02/05 05:08:41;;;;;;;29.33;15.40;;;8.00;99.90;;;;;;5052696;28;20045;-86
2023/02/05 05:11:12;;;;;;;28.77;14.80;;;7.90;99.90;;;;;;5054314;28;20073;-86
2023/02/05 05:13:38;;;;;;;29.30;15.80;;;7.90;99.90;;;;;;5032856;28;20061;-85
2023/02/05 05:16:05;;;;;;;29.23;14.53;;;7.90;99.90;;;;;;5038424;28;20053;-84
2023/02/05 05:18:32;;;;;;;32.30;17.43;;;7.90;99.90;;;;;;5052974;28;20112;-86
2023/02/05 05:20:57;;;;;;;30.30;15.40;;;7.90;99.90;;;;;;5052569;28;20526;-85
2023/02/05 05:23:23;;;;;;;29.43;16.10;;;7.90;99.90;;;;;;5068583;28;20119;-84
2023/02/05 05:25:49;;;;;;;26.53;15.93;;;7.80;99.90;;;;;;5052261;28;20028;-85
2023/02/05 05:28:15;;;;;;;29.03;13.87;;;7.80;99.90;;;;;;5056410;28;20110;-84
2023/02/05 05:30:46;;;;;;;30.23;16.60;;;7.80;99.90;;;;;;5056109;28;20492;-83
2023/02/05 05:33:12;;;;;;;24.70;14.77;;;7.80;99.90;;;;;;5056929;28;20078;-84
2023/02/05 05:35:38;;;;;;;28.17;14.80;;;7.80;99.90;;;;;;5050205;28;20049;-84
2023/02/05 05:38:04;;;;;;;26.97;15.83;;;7.80;99.90;;;;;;5036132;28;20038;-84
2023/02/05 05:46:02;;;;;;;30.43;16.63;;;7.70;99.90;;;;;;5044688;28;20040;-84
2023/02/05 05:48:28;;;;;;;30.70;17.63;;;7.70;99.90;;;;;;5056365;28;20027;-84
2023/02/05 05:50:54;;;;;;;29.97;16.67;;;7.60;99.90;;;;;;5058130;28;20029;-86
2023/02/05 05:53:20;;;;;;;33.27;17.93;;;7.70;99.90;;;;;;5072750;28;20032;-84
2023/02/05 05:55:46;;;;;;;28.60;15.90;;;7.70;99.90;;;;;;5073145;28;20055;-83
2023/02/05 05:58:12;;;;;;;30.97;15.90;;;7.70;99.90;;;;;;5061851;28;20025;-84
2023/02/05 06:00:39;;;;;;;32.10;16.30;;;7.70;99.90;;;;;;5039610;28;20546;-84
2023/02/05 06:03:04;;;;;;;28.10;16.83;;;7.70;99.90;;;;;;5039335;28;20060;-84
2023/02/05 06:05:31;;;;;;;23.97;13.70;;;7.70;99.90;;;;;;5037693;28;20071;-83
2023/02/05 06:07:56;;;;;;;23.73;12.07;;;7.70;99.90;;;;;;5055542;28;20037;-83
2023/02/05 06:10:22;;;;;;;23.77;12.37;;;7.60;99.90;;;;;;5071745;28;20036;-82
2023/02/05 06:12:49;;;;;;;20.50;11.37;;;7.60;99.90;;;;;;5057042;28;20477;-83
2023/02/05 06:15:15;;;;;;;21.47;11.57;;;7.60;99.90;;;;;;5052605;28;20119;-86
2023/02/05 06:17:41;;;;;;;18.30;9.37;;;7.60;99.90;;;;;;5039174;28;20087;-84
2023/02/05 06:20:07;;;;;;;16.80;9.67;;;7.60;99.90;;;;;;5022146;28;20040;-84
2023/02/05 06:22:32;;;;;;;15.33;7.43;;;7.60;99.90;;;;;;5038168;28;20122;-84
2023/02/05 06:24:58;;;;;;;12.93;7.03;;;7.60;99.90;;;;;;5051217;28;20053;-85
2023/02/05 06:27:24;;;;;;;10.30;4.97;;;7.60;99.90;;;;;;5024401;28;20033;-86
2023/02/05 06:29:49;;;;;;;7.93;3.37;;;7.50;99.90;;;;;;5055393;28;20480;-87
2023/02/05 06:32:15;;;;;;;8.30;2.73;;;7.50;99.90;;;;;;5056173;28;20035;-86
2023/02/05 06:34:40;;;;;;;5.57;2.13;;;7.50;99.90;;;;;;5056516;28;20116;-86
2023/02/05 06:37:06;;;;;;;8.27;2.00;;;7.50;99.90;;;;;;5055737;28;20025;-87
2023/02/05 06:39:32;;;;;;;5.97;1.13;;;7.40;99.90;;;;;;5055573;28;20025;-87
2023/02/05 06:41:57;;;;;;;12.37;1.37;;;7.40;99.90;;;;;;5055498;28;20092;-86
2023/02/05 06:44:23;;;;;;;12.07;1.20;;;7.30;99.90;;;;;;5054358;28;20385;-85
2023/02/05 06:46:49;;;;;;;12.10;1.10;;;7.20;99.90;;;;;;5072181;28;20083;-87
2023/02/05 06:49:14;;;;;;;16.47;1.50;;;7.20;99.90;;;;;;5043082;28;20033;-86
2023/02/05 06:51:40;;;;;;;16.60;1.27;;;7.10;99.90;;;;;;5040459;28;20040;-85
2023/02/05 06:54:06;;;;;;;6.27;0.90;;;7.10;99.90;;;;;;5066695;28;20100;-86
2023/02/05 06:56:31;;;;;;;6.93;0.87;;;7.10;99.90;;;;;;5040279;28;20063;-84
2023/02/05 06:58:57;;;;;;;16.77;1.23;;;7.10;99.90;;;;;;5078659;28;20385;-84
2023/02/05 07:01:23;;;;;;;9.27;0.90;;;7.00;99.90;;;;;;5040097;28;20030;-84
2023/02/05 07:03:53;;;;;;;7.20;1.60;;;7.00;99.90;;;;;;5037906;28;20041;-84
2023/02/05 07:06:18;;;;;;;9.03;0.67;;;7.00;99.90;;;;;;5038963;28;20033;-84
2023/02/05 07:08:46;;;;;;;5.87;0.53;;;7.00;99.90;;;;;;5056032;28;20123;-84
2023/02/05 07:11:12;;;;;;;9.80;0.73;;;7.00;99.90;;;;;;5056183;28;20489;-84
2023/02/05 07:13:37;;;;;;;10.70;1.00;;;6.90;99.90;;;;;;5054461;28;20036;-84
2023/02/05 07:16:04;;;;;;;7.10;0.97;;;6.90;99.90;;;;;;5038402;28;20048;-83
2023/02/05 07:18:30;;;;;;;7.40;0.70;;;6.90;99.90;;;;;;5054251;28;20029;-83
2023/02/05 07:20:56;;;;;;;5.90;0.73;;;6.90;99.90;;;;;;5055778;28;20021;-83
2023/02/05 07:23:21;;;;;;;8.83;1.00;;;6.90;99.90;;;;;;5054184;28;20033;-84
2023/02/05 07:25:47;;;;;;;15.53;1.30;;;6.90;99.90;;;;;;5020485;28;20493;-84
2023/02/05 07:28:13;;;;;;;8.20;1.30;;;6.90;99.90;;;;;;5034001;28;20052;-82
2023/02/05 07:30:38;;;;;;;14.17;1.80;;;6.70;99.90;;;;;;5033679;28;20037;-83
2023/02/05 07:33:04;;;;;;;11.47;1.67;;;6.80;99.90;;;;;;5017004;28;20025;-80
2023/02/05 07:35:31;;;;;;;7.20;1.07;;;6.80;99.90;;;;;;5028690;28;20037;-84
2023/02/05 07:37:57;;;;;;;9.33;0.93;;;6.90;99.90;;;;;;5040691;28;20091;-83
2023/02/05 07:40:22;;;;;;;12.37;1.20;;;6.90;99.90;;;;;;5052809;28;20021;-84
2023/02/05 07:42:48;;;;;;;9.87;0.70;;;6.90;99.90;;;;;;5052781;28;20108;-82
2023/02/05 07:45:13;;;;;;;9.07;1.03;;;6.90;99.90;;;;;;5051914;28;20032;-82
2023/02/05 07:47:39;;;;;;;11.37;1.27;;;6.90;99.90;;;;;;5034353;28;20040;-82
2023/02/05 07:50:05;;;;;;;11.10;1.20;;;6.90;99.90;;;;;;5019899;28;20025;-82
2023/02/05 07:52:32;;;;;;;7.80;0.90;;;6.90;99.90;;;;;;5054107;28;20489;-82
2023/02/05 07:54:57;;;;;;;12.73;1.17;;;6.90;99.90;;;;;;5037580;28;20040;-82
2023/02/05 07:57:25;;;;;;;13.97;1.37;;;6.90;99.90;;;;;;5050874;28;20028;-82
2023/02/05 07:59:51;;;;;;;11.70;1.13;;;6.90;99.90;;;;;;5036652;28;20060;-83
2023/02/05 08:02:16;;;;;;;13.57;1.00;;;6.90;99.90;;;;;;5036161;28;20022;-82
2023/02/05 08:04:42;;;;;;;9.50;1.17;;;6.90;99.90;;;;;;5035228;28;20029;-82
2023/02/05 08:07:11;;;;;;;14.87;1.47;;;6.90;99.90;;;;;;5051992;28;20024;-83
2023/02/05 08:09:36;;;;;;;10.43;2.00;;;7.00;99.90;;;;;;5053833;28;20021;-82
2023/02/05 08:12:02;;;;;;;18.97;1.47;;;6.90;99.90;;;;;;5051749;28;20055;-82
2023/02/05 08:14:30;;;;;;;14.80;1.77;;;7.00;99.90;;;;;;5053076;28;20082;-83
2023/02/05 08:16:57;;;;;;;21.20;2.30;;;7.00;99.90;;;;;;5052428;28;20090;-83
2023/02/05 08:19:23;;;;;;;13.17;2.50;;;7.00;99.90;;;;;;5053764;28;20032;-83
2023/02/05 08:21:49;;;;;;;20.60;2.33;;;7.00;99.90;;;;;;5053680;28;20401;-83
2023/02/05 08:24:14;;;;;;;15.73;1.53;;;7.00;99.90;;;;;;5053192;28;20036;-82
2023/02/05 08:26:40;;;;;;;16.60;1.80;;;7.00;99.90;;;;;;5048396;28;20037;-83
2023/02/05 08:29:07;;;;;;;18.33;1.57;;;7.00;99.90;;;;;;5043951;28;20027;-83
2023/02/05 08:31:37;;;;;;;15.77;2.10;;;6.90;99.90;;;;;;5046711;28;20048;-83
2023/02/05 08:34:03;;;;;;;29.20;2.73;;;7.10;99.90;;;;;;5031787;28;20030;-82
2023/02/05 08:36:29;;;;;;;10.47;1.67;;;7.10;99.90;;;;;;5051677;28;20037;-83
2023/02/05 08:38:55;;;;;;;16.63;2.10;;;7.00;99.90;;;;;;5015814;28;20030;-83
2023/02/05 08:41:21;;;;;;;15.13;1.63;;;7.10;99.90;;;;;;5033823;28;20187;-83
2023/02/05 08:43:48;;;;;;;16.23;1.83;;;7.10;99.90;;;;;;5034243;28;20136;-83
2023/02/05 08:46:19;;;;;;;18.97;1.97;;;7.20;99.90;;;;;;5039182;28;20034;-83
2023/02/05 08:48:46;;;;;;;20.93;2.10;;;7.10;99.90;;;;;;5045297;28;20456;-83
2023/02/05 08:51:13;;;;;;;15.90;2.00;;;7.10;99.90;;;;;;5046241;28;20482;-82
2023/02/05 08:53:39;;;;;;;14.33;1.80;;;7.10;99.90;;;;;;5035653;28;20032;-83
2023/02/05 08:56:07;;;;;;;16.97;2.20;;;7.10;99.90;;;;;;5037476;28;20041;-83
2023/02/05 08:58:33;;;;;;;16.13;1.80;;;7.20;99.90;;;;;;5040656;28;20512;-83
2023/02/05 09:01:10;;;;;;;20.83;1.93;;;7.20;99.90;;;;;;5038874;28;20055;-83
2023/02/05 09:03:36;;;;;;;16.50;1.43;;;7.20;99.90;;;;;;5050876;28;20021;-82
2023/02/05 09:06:05;;;;;;;21.40;2.50;;;7.20;99.90;;;;;;5058223;28;20033;-83
2023/02/05 09:08:31;;;;;;;18.20;2.23;;;7.20;99.90;;;;;;5058689;28;20029;-82
2023/02/05 09:10:56;;;;;;;17.53;2.00;;;7.30;99.90;;;;;;5059446;28;20102;-83
2023/02/05 09:13:23;;;;;;;13.10;1.93;;;7.30;99.90;;;;;;5059582;28;20059;-83
2023/02/05 09:15:48;;;;;;;16.57;1.57;;;7.30;99.90;;;;;;5059063;28;20044;-83
2023/02/05 09:18:14;;;;;;;27.40;3.87;;;7.40;99.90;;;;;;5067898;28;20037;-83
2023/02/05 09:20:45;;;;;;;26.47;3.07;;;7.40;99.90;;;;;;5039713;28;20489;-83
2023/02/05 09:23:13;;;;;;;22.57;4.07;;;7.40;99.90;;;;;;5052624;28;20033;-83
2023/02/05 09:25:40;;;;;;;23.80;2.80;;;7.50;99.90;;;;;;5047182;28;20035;-82
2023/02/05 09:28:08;;;;;;;20.33;2.80;;;7.50;99.90;;;;;;5048226;28;20089;-83
2023/02/05 09:30:38;;;;;;;28.57;3.07;;;7.60;99.90;;;;;;5048281;28;20096;-82
2023/02/05 09:33:04;;;;;;;18.97;2.57;;;7.60;99.90;;;;;;5048384;28;20127;-82
2023/02/05 09:35:34;;;;;;;25.83;2.43;;;7.60;99.90;;;;;;5023239;28;20525;-81
2023/02/05 09:38:02;;;;;;;27.03;3.73;;;7.60;99.90;;;;;;5051248;28;20032;-82
2023/02/05 09:40:58;;;;;;;19.20;2.97;;;7.70;99.90;;;;;;5037971;28;20030;-81
2023/02/05 09:43:49;;;;;;;23.53;3.30;;;7.80;99.90;;;;;;5050879;28;20040;-90
2023/02/05 09:46:43;;;;;;;26.23;3.43;;;7.90;99.90;;;;;;5051162;28;20443;-82
2023/02/05 09:49:26;;;;;;;24.83;3.80;;;7.90;99.90;;;;;;5043299;28;20048;-81
2023/02/05 09:52:01;;;;;;;24.13;2.80;;;7.90;99.90;;;;;;5057949;28;20025;-81
2023/02/05 09:54:39;;;;;;;25.17;3.90;;;8.00;99.90;;;;;;5056233;28;20590;-81
2023/02/05 09:57:10;;;;;;;29.13;3.80;;;8.00;99.90;;;;;;5056475;28;20020;-81
2023/02/05 09:59:40;;;;;;;24.60;3.43;;;8.10;99.90;;;;;;5055564;28;20028;-81
2023/02/05 10:02:38;;;;;;;32.23;3.90;;;8.10;99.90;;;;;;5037201;28;20021;-81
2023/02/05 10:05:12;;;;;;;28.00;3.37;;;8.10;99.90;;;;;;5036187;28;20041;-80
2023/02/05 10:08:18;;;;;;;22.98;3.28;;;8.10;99.90;;;;;;5037891;28;20026;-81
2023/02/05 10:10:48;;;;;;;22.90;2.70;;;8.10;99.90;;;;;;5037412;28;20061;-80
2023/02/05 10:13:35;;;;;;;20.57;3.20;;;8.20;99.90;;;;;;5017830;28;20056;-81
2023/02/05 10:16:15;;;;;;;26.50;3.63;;;8.20;99.90;;;;;;5035438;28;20103;-81
2023/02/05 10:19:06;;;;;;;17.73;3.17;;;8.20;99.90;;;;;;5055583;28;20060;-81
2023/02/05 10:21:53;;;;;;;19.07;3.23;;;8.20;99.90;;;;;;5048694;28;20118;-81
2023/02/05 10:24:37;;;;;;;30.83;3.40;;;8.30;99.90;;;;;;5054256;28;20029;-81
2023/02/05 10:27:29;;;;;;;28.30;3.67;;;8.30;99.90;;;;;;5054529;28;20036;-81
2023/02/05 10:30:23;;;;;;;24.73;3.20;;;8.30;99.90;;;;;;5054636;28;20075;-80
2023/02/05 10:32:57;;;;;;;21.77;4.20;;;8.40;99.90;;;;;;5053644;28;20029;-81
2023/02/05 10:35:32;;;;;;;19.58;3.97;;;8.50;99.90;;;;;;5054910;28;20540;-81
2023/02/05 10:37:57;;;;;;;23.40;2.93;;;8.50;99.90;;;;;;5055565;28;20028;-81
2023/02/05 10:40:38;;;;;;;22.07;2.90;;;8.60;99.80;;;;;;5038042;28;20037;-81
2023/02/05 10:43:23;;;;;;;17.53;2.83;;;8.80;99.40;;;;;;5056281;28;20041;-81
2023/02/05 10:45:51;;;;;;;24.20;3.23;;;8.90;98.90;;;;;;5044799;28;20547;-80
2023/02/05 10:48:41;;;;;;;23.40;3.33;;;9.00;98.50;;;;;;5034518;28;20112;-81
2023/02/05 10:51:14;;;;;;;19.40;2.47;;;9.10;98.00;;;;;;5034665;28;20022;-81
2023/02/05 10:53:41;;;;;;;21.90;2.87;;;9.10;98.00;;;;;;5034060;28;20024;-81
2023/02/05 10:56:06;;;;;;;20.10;2.97;;;9.10;97.00;;;;;;5044558;28;20040;-81
2023/02/05 10:58:45;;;;;;;15.77;2.50;;;9.10;96.80;;;;;;5053834;28;20021;-80
2023/02/05 11:01:37;;;;;;;24.60;3.80;;;9.10;96.50;;;;;;5053893;28;20033;-81
2023/02/05 11:04:06;;;;;;;17.27;2.30;;;9.10;96.30;;;;;;5049835;28;20033;-81
2023/02/05 11:06:38;;;;;;;22.87;2.57;;;9.10;96.20;;;;;;5033373;28;20021;-81
2023/02/05 11:09:24;;;;;;;20.93;2.90;;;9.00;96.10;;;;;;5034941;28;20473;-81
2023/02/05 11:11:55;;;;;;;25.33;3.33;;;9.00;96.00;;;;;;5033067;28;20183;-81
2023/02/05 11:14:43;;;;;;;23.30;2.90;;;9.00;95.90;;;;;;5033780;28;20429;-81
2023/02/05 11:17:14;;;;;;;23.93;3.90;;;9.00;95.50;;;;;;5034973;28;20025;-81
2023/02/05 11:19:40;;;;;;;23.20;3.43;;;9.00;95.30;;;;;;5034226;28;20025;-81
2023/02/05 11:22:05;;;;;;;25.50;3.47;;;8.90;95.50;;;;;;5033459;28;20038;-81
2023/02/05 11:24:38;;;;;;;26.17;3.50;;;8.90;95.40;;;;;;5032673;28;20044;-81
2023/02/05 11:27:35;;;;;;;33.27;4.00;;;8.90;95.10;;;;;;5037297;28;20048;-81
2023/02/05 11:30:45;;;;;;;23.73;4.00;;;9.00;94.90;;;;;;5033335;28;20041;-81
2023/02/05 11:33:24;;;;;;;22.83;3.83;;;9.00;94.50;;;;;;5031521;28;20041;-81
2023/02/05 11:36:03;;;;;;;25.47;3.33;;;9.10;94.40;;;;;;5032600;28;20527;-81
2023/02/05 11:38:41;;;;;;;23.20;2.37;;;9.10;93.80;;;;;;5033140;28;20025;-81
2023/02/05 11:41:08;;;;;;;20.70;3.07;;;9.10;93.80;;;;;;5034066;28;20030;-82
2023/02/05 11:43:47;;;;;;;18.60;2.90;;;9.20;93.50;;;;;;5034724;28;20021;-81
2023/02/05 11:46:24;;;;;;;29.80;3.40;;;9.20;93.60;;;;;;5034134;28;20037;-81
2023/02/05 11:48:59;;;;;;;17.93;3.30;;;9.30;93.60;;;;;;5034775;28;20116;-81
2023/02/05 11:51:33;;;;;;;20.40;2.50;;;9.50;93.80;;;;;;5033232;28;20083;-82
2023/02/05 11:54:02;;;;;;;17.67;3.37;;;9.60;93.50;;;;;;5033461;28;20026;-82
2023/02/05 11:56:28;;;;;;;24.63;3.60;;;9.70;93.50;;;;;;5034588;28;20553;-82
2023/02/05 11:59:02;;;;;;;23.07;3.63;;;9.70;93.10;;;;;;5052484;28;20119;-82
2023/02/05 12:01:35;;;;;;;22.37;3.53;;;9.70;92.90;;;;;;5052006;28;20115;-82
2023/02/05 12:04:17;;;;;;;23.47;3.17;;;9.70;92.80;;;;;;5051345;28;20033;-82
2023/02/05 12:06:57;;;;;;;27.00;3.27;;;9.50;92.70;;;;;;5032121;28;20053;-81
2023/02/05 12:09:26;;;;;;;20.27;2.83;;;9.50;92.60;;;;;;5034960;28;20022;-81
2023/02/05 12:12:02;;;;;;;28.07;4.67;;;9.50;92.40;;;;;;5045711;28;20052;-81
2023/02/05 12:15:07;;;;;;;23.47;3.77;;;9.40;92.50;;;;;;5053928;28;20468;-81
2023/02/05 12:18:00;;;;;;;21.80;3.90;;;9.40;92.20;;;;;;5052219;28;20021;-81
2023/02/05 12:20:36;;;;;;;28.83;4.00;;;9.40;92.00;;;;;;5053880;28;20025;-82
2023/02/05 12:23:43;;;;;;;31.70;4.87;;;9.50;92.20;;;;;;5054337;28;20489;-82
2023/02/05 12:26:18;;;;;;;24.23;3.97;;;9.50;91.30;;;;;;5033089;28;20075;-82
2023/02/05 12:28:57;;;;;;;24.00;3.33;;;9.60;91.30;;;;;;5053879;28;20033;-82
2023/02/05 12:32:17;;;;;;;14.07;2.70;;;9.80;91.80;;;;;;5052534;28;20021;-82
2023/02/05 12:35:04;;;;;;;25.27;3.23;;;10.00;91.30;;;;;;5038308;28;20486;-82
2023/02/05 12:37:53;;;;;;;16.73;2.93;;;10.20;90.90;;;;;;5051660;28;20036;-82
2023/02/05 12:40:33;;;;;;;15.93;2.58;;;10.80;92.10;;;;;;5041485;28;20041;-82
2023/02/05 12:43:35;;;;;;;20.00;2.92;;;11.80;92.80;;;;;;5032111;28;20061;-82
2023/02/05 12:46:38;;;;;;;17.63;3.05;;;12.90;92.10;;;;;;5033670;28;20025;-82
2023/02/05 12:49:21;;;;;;;16.83;2.80;;;13.80;90.40;;;;;;5032229;28;20615;-83
2023/02/05 12:52:16;;;;;;;14.53;2.80;;;14.10;85.40;;;;;;5033159;28;20100;-83
2023/02/05 12:54:52;;;;;;;16.77;2.45;;;14.50;79.10;;;;;;5039208;28;20719;-82
2023/02/05 12:57:34;;;;;;;12.98;2.20;;;14.70;75.90;;;;;;5051931;28;20029;-83
2023/02/05 13:00:26;;;;;;;14.40;2.42;;;15.00;75.00;;;;;;5054164;28;20033;-82
2023/02/05 13:03:21;;;;;;;15.95;2.70;;;15.00;72.40;;;;;;5050724;28;20041;-82
2023/02/05 13:06:04;;;;;;;16.73;3.35;;;14.60;68.40;;;;;;5053255;28;20029;-82
2023/02/05 13:08:42;;;;;;;22.30;2.55;;;14.10;68.60;;;;;;5051371;28;20457;-82
2023/02/05 13:11:21;;;;;;;19.30;2.33;;;13.60;69.30;;;;;;5057412;28;20020;-82